Time;durP1;ratioP1;P1;durP2;ratioP2;P2;SDS_P1;SDS_P2;PMS_P1;PMS_P2;Temp;Humidity;BMP_temperature;BMP_pressure;BME280_temperature;BME280_humidity;BME280_pressure;Samples;Min_cycle;Max_cycle;Signal;HPM_P1;HPM_P2
2022/05/16 00:00:28;;;;;;;33.38;23.58;;;;;;;18.11;78.82;99955.69;5033911;28;20026;-82
2022/05/16 00:02:55;;;;;;;34.53;23.58;;;;;;;18.18;78.66;99968.16;5033800;28;20045;-82
2022/05/16 00:05:22;;;;;;;37.08;22.85;;;;;;;18.26;78.58;99958.56;5032548;28;20037;-82
2022/05/16 00:07:48;;;;;;;34.15;21.00;;;;;;;18.23;78.35;99960.53;5033640;28;20083;-82
2022/05/16 00:10:14;;;;;;;28.67;20.38;;;;;;;18.23;78.56;99965.88;5033804;28;20368;-82
2022/05/16 00:12:40;;;;;;;24.73;18.48;;;;;;;18.26;78.91;99962.03;5033559;28;20040;-82
2022/05/16 00:15:13;;;;;;;33.10;21.88;;;;;;;18.29;78.69;99956.41;5033507;28;20043;-82
2022/05/16 00:17:39;;;;;;;30.25;19.73;;;;;;;18.22;78.59;99942.09;5033632;28;20041;-82
2022/05/16 00:20:05;;;;;;;26.55;17.10;;;;;;;18.35;78.50;99942.44;5032343;28;20029;-82
2022/05/16 00:22:31;;;;;;;34.05;22.33;;;;;;;18.37;78.27;99943.13;5032110;28;20287;-82
2022/05/16 00:24:57;;;;;;;30.98;20.42;;;;;;;18.38;78.46;99946.59;5033539;28;20719;-82
2022/05/16 00:27:22;;;;;;;40.75;22.75;;;;;;;18.37;77.91;99944.94;5033291;28;20494;-82
2022/05/16 00:29:48;;;;;;;30.63;22.02;;;;;;;18.47;78.14;99942.94;5033453;28;20056;-82
2022/05/16 00:32:17;;;;;;;34.65;21.10;;;;;;;18.51;77.77;99960.22;5033361;28;20028;-82
2022/05/16 00:34:42;;;;;;;28.10;18.92;;;;;;;18.48;77.98;99968.50;5032126;28;20365;-82
2022/05/16 00:37:07;;;;;;;41.67;21.98;;;;;;;18.33;79.23;99976.34;5033050;28;20092;-82
2022/05/16 00:39:33;;;;;;;33.95;21.83;;;;;;;18.36;79.65;99969.84;5032909;28;20022;-82
2022/05/16 00:41:59;;;;;;;39.47;22.95;;;;;;;18.37;80.51;99967.03;5048283;28;20033;-82
2022/05/16 00:44:25;;;;;;;36.38;21.25;;;;;;;18.42;80.09;99956.75;5033213;28;20055;-82
2022/05/16 00:46:51;;;;;;;31.60;20.50;;;;;;;18.25;81.36;99957.72;5033148;28;20036;-82
2022/05/16 00:49:22;;;;;;;26.38;18.85;;;;;;;18.47;79.51;99937.63;5031902;28;20112;-82
2022/05/16 00:51:52;;;;;;;28.42;17.00;;;;;;;18.76;77.37;99960.19;5032109;28;20482;-82
2022/05/16 00:54:23;;;;;;;31.38;18.30;;;;;;;18.55;79.27;99968.69;5033016;28;20030;-83
2022/05/16 00:56:53;;;;;;;30.67;18.87;;;;;;;18.48;79.80;99968.50;5032897;28;20506;-83
2022/05/16 00:59:23;;;;;;;33.05;20.10;;;;;;;18.53;78.79;99958.22;5032910;28;20041;-83
2022/05/16 01:04:48;;;;;;;26.85;19.63;;;;;;;18.39;80.12;99954.41;5030666;28;20064;-84
2022/05/16 01:07:31;;;;;;;32.40;17.63;;;;;;;18.26;82.24;99945.25;5032830;28;20076;-84
2022/05/16 01:09:57;;;;;;;25.15;16.15;;;;;;;18.42;80.83;99938.13;5032622;28;20386;-83
2022/05/16 01:12:35;;;;;;;19.75;13.65;;;;;;;18.30;82.00;99954.56;5031150;28;20097;-84
2022/05/16 01:15:05;;;;;;;20.75;11.88;;;;;;;18.38;82.23;99947.44;5032370;28;20032;-83
2022/05/16 01:17:30;;;;;;;19.92;11.15;;;;;;;18.23;83.06;99951.75;5032312;28;20030;-83
2022/05/16 01:19:56;;;;;;;17.85;10.82;;;;;;;18.40;82.23;99944.59;5032285;28;20530;-83
2022/05/16 01:22:41;;;;;;;23.05;10.88;;;;;;;18.52;80.88;99948.59;5032393;28;20431;-83
2022/05/16 01:25:23;;;;;;;11.13;8.35;;;;;;;18.66;79.89;99948.91;5032337;28;20087;-83
2022/05/16 01:27:57;;;;;;;13.00;8.40;;;;;;;18.76;78.98;99949.56;5032211;28;20514;-83
2022/05/16 01:30:26;;;;;;;20.67;10.23;;;;;;;18.69;79.86;99954.72;5047580;28;20384;-83
2022/05/16 01:32:51;;;;;;;16.40;9.48;;;;;;;18.74;79.24;99949.75;5030924;28;20028;-83
2022/05/16 01:35:19;;;;;;;18.80;8.63;;;;;;;18.82;78.42;99956.91;5032190;28;20025;-83
2022/05/16 01:40:29;;;;;;;16.60;9.35;;;;;;;18.59;80.01;99928.31;5031989;28;20037;-83
2022/05/16 01:42:54;;;;;;;15.20;7.55;;;;;;;18.75;79.45;99923.97;5030598;28;20030;-83
2022/05/16 01:45:19;;;;;;;14.85;6.60;;;;;;;18.63;79.51;99932.28;5032174;28;20025;-83
2022/05/16 01:47:45;;;;;;;13.85;7.10;;;;;;;18.78;78.78;99928.97;5030662;28;20026;-83
2022/05/16 01:50:11;;;;;;;11.98;6.10;;;;;;;18.75;78.58;99930.13;5031719;28;20029;-83
2022/05/16 01:52:36;;;;;;;13.50;6.30;;;;;;;18.86;78.37;99928.13;5030574;28;20120;-83
2022/05/16 01:55:03;;;;;;;9.43;6.50;;;;;;;18.82;78.35;99933.81;5031710;28;20514;-83
2022/05/16 01:57:28;;;;;;;13.48;6.10;;;;;;;18.90;77.79;99927.63;5032027;28;20029;-83
2022/05/16 01:59:53;;;;;;;12.32;6.30;;;;;;;18.79;78.49;99925.28;5047187;28;20178;-83
2022/05/16 02:02:19;;;;;;;11.85;6.07;;;;;;;18.78;78.16;99921.00;5031632;28;20061;-83
2022/05/16 02:04:44;;;;;;;11.60;6.50;;;;;;;18.78;78.38;99911.16;5046972;28;20450;-83
2022/05/16 02:07:09;;;;;;;11.70;6.05;;;;;;;18.71;78.63;99914.69;5031489;28;20030;-83
2022/05/16 02:09:34;;;;;;;13.65;6.90;;;;;;;18.63;80.08;99929.63;5031786;28;20025;-83
2022/05/16 02:12:00;;;;;;;16.55;7.25;;;;;;;18.67;79.67;99932.78;5031595;28;20037;-83
2022/05/16 02:14:25;;;;;;;15.15;7.15;;;;;;;18.68;79.69;99929.16;5031881;28;20025;-83
2022/05/16 02:16:51;;;;;;;10.90;7.07;;;;;;;18.65;79.71;99926.81;5031676;28;20403;-83
2022/05/16 02:19:16;;;;;;;19.33;7.78;;;;;;;18.59;80.04;99924.81;5031432;28;20024;-83
2022/05/16 02:24:42;;;;;;;16.65;7.40;;;;;;;18.51;81.13;99915.03;5031486;28;20160;-82
2022/05/16 02:27:10;;;;;;;14.35;6.85;;;;;;;18.68;80.54;99904.34;5046855;28;20411;-83
2022/05/16 02:29:36;;;;;;;11.48;7.45;;;;;;;18.62;79.68;99906.72;5031418;28;20030;-83
2022/05/16 02:32:02;;;;;;;13.82;6.93;;;;;;;18.72;79.02;99898.56;5031454;28;20032;-83
2022/05/16 02:34:28;;;;;;;14.52;6.95;;;;;;;18.76;78.70;99901.69;5031542;28;20026;-83
2022/05/16 02:36:53;;;;;;;14.52;6.95;;;;;;;18.72;78.01;99911.00;5031627;28;20033;-82
2022/05/16 02:39:19;;;;;;;14.18;6.78;;;;;;;18.72;78.47;99897.69;5030294;28;20033;-82
2022/05/16 02:41:45;;;;;;;10.60;6.50;;;;;;;18.66;79.43;99901.03;5031434;28;20022;-83
2022/05/16 02:44:11;;;;;;;12.27;6.93;;;;;;;18.67;79.39;99900.88;5031350;28;20028;-82
2022/05/16 02:46:37;;;;;;;10.07;5.75;;;;;;;18.55;79.50;99905.72;5031390;28;20037;-82
2022/05/16 02:49:03;;;;;;;11.73;6.80;;;;;;;18.48;80.20;99909.22;5030269;28;20206;-82
2022/05/16 02:51:28;;;;;;;9.35;6.07;;;;;;;18.48;80.32;99919.84;5031505;28;20026;-82
2022/05/16 02:53:54;;;;;;;17.50;6.90;;;;;;;18.56;80.49;99922.50;5031563;28;20506;-83
2022/05/16 02:56:19;;;;;;;16.02;6.32;;;;;;;18.60;80.03;99913.19;5031442;28;20057;-83
2022/05/16 02:58:45;;;;;;;16.42;6.95;;;;;;;18.54;80.39;99906.72;5030021;28;20040;-83
2022/05/16 03:01:11;;;;;;;11.60;6.15;;;;;;;18.54;80.61;99898.75;5030341;28;20059;-83
2022/05/16 03:03:38;;;;;;;9.20;5.97;;;;;;;18.61;80.43;99901.56;5031970;28;20462;-82
2022/05/16 03:06:04;;;;;;;12.00;7.30;;;;;;;18.68;80.23;99926.50;5031633;28;20029;-83
2022/05/16 03:08:29;;;;;;;10.15;5.90;;;;;;;18.65;80.60;99924.16;5032285;28;20431;-82
2022/05/16 03:10:55;;;;;;;8.85;5.57;;;;;;;18.51;81.34;99919.53;5032222;28;20029;-83
2022/05/16 03:13:20;;;;;;;11.07;6.10;;;;;;;18.60;81.42;99916.69;5032002;28;20057;-82
2022/05/16 03:15:46;;;;;;;15.48;7.65;;;;;;;18.61;81.20;99918.34;5034132;28;20025;-82
2022/05/16 03:18:12;;;;;;;13.48;6.57;;;;;;;18.60;81.73;99927.31;5035387;28;20029;-82
2022/05/16 03:20:37;;;;;;;12.85;6.00;;;;;;;18.76;79.82;99928.28;5035981;28;20464;-82
2022/05/16 03:23:02;;;;;;;17.60;6.40;;;;;;;18.78;79.21;99931.63;5034393;28;20045;-82
2022/05/16 03:25:28;;;;;;;13.60;6.28;;;;;;;18.69;80.21;99933.44;5035641;28;20033;-82
2022/05/16 03:27:53;;;;;;;13.18;6.53;;;;;;;18.86;79.47;99944.09;5035325;28;20154;-82
2022/05/16 03:30:19;;;;;;;12.05;6.65;;;;;;;18.78;79.30;99936.94;5035773;28;20116;-82
2022/05/16 03:32:44;;;;;;;20.08;8.20;;;;;;;18.74;79.87;99944.44;5035225;28;20528;-82
2022/05/16 03:35:10;;;;;;;18.08;7.55;;;;;;;18.90;78.61;99954.25;5035215;28;20013;-82
2022/05/16 03:37:35;;;;;;;14.85;6.97;;;;;;;18.71;79.21;99944.75;5035164;28;20029;-82
2022/05/16 03:42:44;;;;;;;24.65;7.88;;;;;;;18.56;79.57;99930.47;5034835;28;20121;-82
2022/05/16 03:45:10;;;;;;;20.08;7.65;;;;;;;18.72;78.52;99924.28;5034746;28;20061;-82
2022/05/16 03:47:35;;;;;;;25.42;9.15;;;;;;;18.61;79.19;99921.00;5033225;28;20036;-82
2022/05/16 03:50:01;;;;;;;21.65;8.73;;;;;;;18.73;78.50;99929.44;5034491;28;20022;-83
2022/05/16 03:52:26;;;;;;;21.10;9.32;;;;;;;18.75;78.28;99932.78;5034006;28;20540;-82
2022/05/16 03:54:52;;;;;;;22.77;10.13;;;;;;;18.72;78.23;99941.09;5035066;28;20025;-82
2022/05/16 03:57:17;;;;;;;23.05;9.55;;;;;;;18.72;78.15;99943.75;5034683;28;20079;-82
2022/05/16 03:59:42;;;;;;;23.92;9.48;;;;;;;18.70;77.93;99939.59;5034431;28;20017;-82
2022/05/16 04:02:08;;;;;;;29.52;9.98;;;;;;;18.71;78.06;99946.59;5034301;28;20057;-83
2022/05/16 04:04:35;;;;;;;26.77;10.02;;;;;;;18.70;77.61;99947.56;5034324;28;20503;-82
2022/05/16 04:07:00;;;;;;;29.05;9.73;;;;;;;18.67;78.16;99950.59;5034300;28;20490;-83
2022/05/16 04:09:26;;;;;;;29.02;10.30;;;;;;;18.75;77.43;99953.22;5034165;28;20026;-82
2022/05/16 04:11:51;;;;;;;20.27;10.32;;;;;;;18.72;77.38;99951.75;5034053;28;20148;-82
2022/05/16 04:14:16;;;;;;;22.83;10.57;;;;;;;18.70;76.95;99950.22;5034117;28;20061;-82
2022/05/16 04:16:42;;;;;;;36.65;12.95;;;;;;;18.55;77.64;99950.91;5034118;28;20108;-82
2022/05/16 04:19:08;;;;;;;27.00;11.57;;;;;;;18.61;77.01;99947.59;5033732;28;20104;-82
2022/05/16 04:21:39;;;;;;;27.98;11.48;;;;;;;18.48;77.64;99947.25;5034348;28;20057;-82
2022/05/16 04:24:06;;;;;;;35.20;13.13;;;;;;;18.49;77.15;99950.75;5034177;28;20493;-82
2022/05/16 04:26:32;;;;;;;21.42;11.02;;;;;;;18.54;77.26;99959.06;5031641;28;20049;-82
2022/05/16 04:28:57;;;;;;;27.38;12.43;;;;;;;18.45;77.41;99971.53;5032683;28;20179;-82
2022/05/16 04:31:23;;;;;;;32.70;14.27;;;;;;;18.40;77.73;99981.81;5033865;28;20033;-82
2022/05/16 04:33:49;;;;;;;26.05;11.45;;;;;;;18.39;78.49;99994.28;5033735;28;20021;-82
2022/05/16 04:36:14;;;;;;;26.80;12.52;;;;;;;18.45;77.97;99994.63;5033678;28;20028;-82
2022/05/16 04:38:39;;;;;;;21.75;12.15;;;;;;;18.43;78.70;99992.13;5033825;28;20033;-82
2022/05/16 04:43:50;;;;;;;33.65;15.57;;;;;;;18.31;78.41;99998.78;5033863;28;20060;-82
2022/05/16 04:46:15;;;;;;;26.88;13.95;;;;;;;18.38;78.28;100013.03;5034163;28;20488;-82
2022/05/16 04:48:40;;;;;;;19.23;12.07;;;;;;;18.42;78.77;100014.38;5033364;28;20029;-82
2022/05/16 04:51:06;;;;;;;27.02;14.73;;;;;;;18.44;78.48;100023.00;5033164;28;20064;-82
2022/05/16 04:53:31;;;;;;;34.10;15.05;;;;;;;17.98;80.99;100033.22;5033760;28;20049;-81
2022/05/16 04:55:57;;;;;;;33.35;15.00;;;;;;;18.31;79.40;100034.13;5033448;28;20108;-82
2022/05/16 04:58:23;;;;;;;35.47;15.23;;;;;;;18.12;81.02;100031.78;5031988;28;20027;-82
2022/05/16 05:00:48;;;;;;;24.92;15.57;;;;;;;18.34;79.49;100040.94;5033037;28;20036;-82
2022/05/16 05:03:13;;;;;;;30.52;16.33;;;;;;;18.30;78.95;100050.25;5033196;28;20025;-81
2022/05/16 05:05:39;;;;;;;28.02;16.05;;;;;;;18.24;78.90;100044.56;5032902;28;20044;-82
2022/05/16 05:08:04;;;;;;;26.98;15.88;;;;;;;18.35;78.22;100042.63;5033124;28;20034;-82
2022/05/16 05:16:09;;;;;;;38.47;18.10;;;;;;;18.30;79.52;100044.94;5032722;28;20083;-81
2022/05/16 05:18:35;;;;;;;40.53;18.50;;;;;;;18.36;78.46;100042.44;5032673;28;20510;-81
2022/05/16 05:21:00;;;;;;;38.05;19.10;;;;;;;18.45;78.43;100043.28;5032566;28;20033;-82
2022/05/16 05:23:26;;;;;;;34.17;18.75;;;;;;;18.56;78.29;100058.94;5032513;28;20537;-81
2022/05/16 05:25:51;;;;;;;35.00;17.75;;;;;;;18.60;78.04;100059.41;5032241;28;20108;-82
2022/05/16 05:28:17;;;;;;;39.58;17.42;;;;;;;18.65;77.89;100065.09;5030868;28;20049;-81
2022/05/16 05:30:43;;;;;;;35.60;17.92;;;;;;;18.71;77.67;100075.06;5028684;28;20114;-81
2022/05/16 05:33:08;;;;;;;40.17;17.67;;;;;;;18.63;76.84;100078.53;5026094;28;20391;-82
2022/05/16 05:35:34;;;;;;;34.72;18.02;;;;;;;18.69;76.23;100081.53;5027818;28;20026;-82
2022/05/16 05:37:59;;;;;;;34.30;16.42;;;;;;;18.59;76.95;100098.47;5027779;28;20517;-81
2022/05/16 05:40:25;;;;;;;38.58;17.58;;;;;;;18.68;76.49;100095.81;5027220;28;20030;-82
2022/05/16 05:42:50;;;;;;;34.33;16.40;;;;;;;18.70;76.10;100104.47;5026507;28;20028;-81
2022/05/16 05:45:16;;;;;;;32.13;16.45;;;;;;;18.90;75.54;100110.34;5027253;28;20026;-81
2022/05/16 05:47:42;;;;;;;36.13;15.68;;;;;;;18.87;74.68;100116.81;5026947;28;20069;-82
2022/05/16 05:50:08;;;;;;;32.13;14.43;;;;;;;18.84;75.24;100122.50;5027201;28;20057;-81
2022/05/16 05:52:34;;;;;;;30.77;15.13;;;;;;;18.78;75.24;100123.13;5027076;28;20037;-84
2022/05/16 05:55:00;;;;;;;26.42;15.68;;;;;;;18.85;74.49;100118.81;5027377;28;20040;-82
2022/05/16 05:57:26;;;;;;;26.55;13.85;;;;;;;18.63;75.42;100129.06;5024844;28;20387;-82
2022/05/16 05:59:53;;;;;;;27.45;15.23;;;;;;;18.52;75.53;100133.84;5025602;28;20474;-82
2022/05/16 06:02:19;;;;;;;29.42;14.60;;;;;;;18.47;76.14;100146.81;5025673;28;20036;-82
2022/05/16 06:04:45;;;;;;;28.30;14.63;;;;;;;18.53;75.30;100139.00;5027213;28;20029;-83
2022/05/16 06:07:11;;;;;;;33.38;15.15;;;;;;;18.36;76.38;100145.28;5022294;28;20041;-82
2022/05/16 06:09:36;;;;;;;31.23;15.00;;;;;;;18.33;76.01;100156.25;5022169;28;20029;-82
2022/05/16 06:12:05;;;;;;;34.85;14.93;;;;;;;18.28;76.32;100159.38;5025987;28;20033;-82
2022/05/16 06:14:31;;;;;;;26.15;14.38;;;;;;;18.36;76.05;100150.59;5016670;28;20480;-82
2022/05/16 06:16:57;;;;;;;25.95;13.30;;;;;;;18.16;77.34;100156.16;5019102;28;20091;-83
2022/05/16 06:19:22;;;;;;;24.45;12.50;;;;;;;18.16;77.22;100152.69;5023528;28;20037;-83
2022/05/16 06:21:49;;;;;;;19.17;12.05;;;;;;;18.48;76.04;100157.25;5031268;28;20025;-82
2022/05/16 06:26:59;;;;;;;23.25;12.43;;;;;;;18.67;74.06;100160.66;5030883;28;20124;-82
2022/05/16 06:29:25;;;;;;;26.05;12.05;;;;;;;18.73;74.32;100162.66;5016206;28;20113;-82
2022/05/16 06:31:51;;;;;;;23.98;12.80;;;;;;;18.62;74.03;100151.34;5016350;28;20108;-82
2022/05/16 06:34:17;;;;;;;22.13;11.63;;;;;;;18.77;73.90;100164.00;5025750;28;20022;-83
2022/05/16 06:36:42;;;;;;;30.02;11.95;;;;;;;18.88;73.78;100170.84;5031286;28;20029;-82
2022/05/16 06:39:07;;;;;;;20.42;11.15;;;;;;;18.92;73.20;100169.56;5031496;28;20017;-82
2022/05/16 06:41:34;;;;;;;18.38;10.90;;;;;;;19.02;73.21;100171.06;5030733;28;20029;-82
2022/05/16 06:44:01;;;;;;;21.13;10.77;;;;;;;19.21;71.99;100171.72;5031153;28;20028;-82
2022/05/16 06:46:26;;;;;;;16.92;10.23;;;;;;;19.17;72.80;100173.91;5030855;28;20134;-83
2022/05/16 06:48:52;;;;;;;23.23;10.00;;;;;;;19.02;73.07;100176.38;5030092;28;20439;-82
2022/05/16 06:51:17;;;;;;;20.73;10.30;;;;;;;19.27;72.76;100181.69;5034298;28;20026;-82
2022/05/16 06:53:43;;;;;;;24.27;10.98;;;;;;;19.25;72.46;100178.38;5035067;28;20037;-82
2022/05/16 06:56:08;;;;;;;15.80;9.15;;;;;;;19.27;72.36;100181.69;5034249;28;20032;-82
2022/05/16 06:58:34;;;;;;;17.35;9.07;;;;;;;19.34;71.63;100177.38;5034805;28;20028;-82
2022/05/16 07:00:59;;;;;;;16.02;9.30;;;;;;;19.57;71.86;100188.19;5034854;28;20034;-82
2022/05/16 07:03:24;;;;;;;14.07;7.53;;;;;;;19.25;71.67;100196.19;5050274;28;20018;-82
2022/05/16 07:05:50;;;;;;;31.20;8.57;;;;;;;19.37;72.18;100197.50;5034642;28;20083;-82
2022/05/16 07:08:17;;;;;;;11.75;6.97;;;;;;;19.49;71.40;100198.00;5034875;28;20116;-82
2022/05/16 07:10:42;;;;;;;12.18;7.50;;;;;;;19.65;71.26;100206.00;5034085;28;20021;-84
2022/05/16 07:13:08;;;;;;;13.10;6.88;;;;;;;19.78;70.10;100206.31;5034692;28;20476;-83
2022/05/16 07:15:34;;;;;;;14.63;8.20;;;;;;;19.48;71.44;100204.34;5034676;28;20013;-82
2022/05/16 07:17:59;;;;;;;11.18;7.38;;;;;;;19.57;71.69;100208.66;5033151;28;20376;-82
2022/05/16 07:20:25;;;;;;;11.05;6.90;;;;;;;19.83;71.27;100208.50;5034583;28;20017;-82
2022/05/16 07:22:51;;;;;;;9.65;6.28;;;;;;;19.94;70.26;100209.97;5034645;28;20418;-82
2022/05/16 07:25:19;;;;;;;11.63;6.28;;;;;;;19.81;70.70;100211.31;5034712;28;20224;-82
2022/05/16 07:27:56;;;;;;;11.32;6.35;;;;;;;20.00;69.11;100211.94;5034578;28;20025;-82
2022/05/16 07:30:24;;;;;;;17.50;7.45;;;;;;;19.96;70.41;100219.47;5033851;28;20034;-82
2022/05/16 07:32:50;;;;;;;14.75;6.50;;;;;;;20.08;69.72;100216.41;5033336;28;20037;-82
2022/05/16 07:35:22;;;;;;;13.40;7.05;;;;;;;20.15;68.22;100218.22;5033041;28;20021;-82
2022/05/16 07:37:48;;;;;;;15.27;7.72;;;;;;;20.13;69.08;100230.06;5034313;28;20040;-82
2022/05/16 07:40:15;;;;;;;9.63;5.40;;;;;;;20.10;68.95;100228.59;5032950;28;20041;-82
2022/05/16 07:42:40;;;;;;;10.25;5.97;;;;;;;20.24;68.54;100235.06;5034041;28;20467;-82
2022/05/16 07:45:07;;;;;;;9.45;5.57;;;;;;;20.36;68.24;100248.84;5034248;28;20025;-82
2022/05/16 07:47:33;;;;;;;13.57;5.25;;;;;;;20.09;68.16;100260.75;5023334;28;20041;-82
2022/05/16 07:49:59;;;;;;;13.10;5.35;;;;;;;19.77;69.15;100268.59;5014409;28;20049;-81
2022/05/16 07:52:25;;;;;;;12.60;4.85;;;;;;;19.81;69.40;100274.44;5014198;28;20033;-81
2022/05/16 07:54:51;;;;;;;12.55;5.60;;;;;;;19.96;68.67;100277.25;5014151;28;20486;-82
2022/05/16 07:57:17;;;;;;;14.45;4.70;;;;;;;19.90;68.92;100276.06;5012939;28;20087;-82
2022/05/16 07:59:43;;;;;;;10.07;4.32;;;;;;;20.07;68.76;100279.56;5014324;28;20088;-82
2022/05/16 08:02:09;;;;;;;11.60;4.40;;;;;;;20.20;68.39;100271.88;5013891;28;20033;-82
2022/05/16 08:04:34;;;;;;;10.23;4.43;;;;;;;20.73;68.53;100268.72;5033160;28;20036;-82
2022/05/16 08:07:01;;;;;;;11.02;4.68;;;;;;;20.49;66.71;100253.63;5032460;28;20538;-82
2022/05/16 08:12:11;;;;;;;11.68;4.05;;;;;;;22.07;61.52;100259.41;5013827;28;20092;-82
2022/05/16 08:14:38;;;;;;;6.75;3.33;;;;;;;24.60;58.29;100249.59;5022065;28;20486;-82
2022/05/16 08:17:04;;;;;;;9.02;3.20;;;;;;;27.03;52.07;100249.06;5033412;28;20071;-82
2022/05/16 08:19:33;;;;;;;9.02;2.97;;;;;;;28.13;49.35;100250.53;5033256;28;20492;-82
2022/05/16 08:21:59;;;;;;;8.77;3.10;;;;;;;28.29;45.89;100244.53;5033445;28;20087;-82
2022/05/16 08:24:24;;;;;;;9.98;2.38;;;;;;;26.83;49.11;100255.38;5031450;28;20128;-83
2022/05/16 08:26:49;;;;;;;8.63;2.28;;;;;;;25.93;52.00;100266.00;5031897;28;20152;-83
2022/05/16 08:29:15;;;;;;;8.57;2.30;;;;;;;24.94;54.37;100268.31;5029657;28;20022;-83
2022/05/16 08:31:40;;;;;;;7.88;2.22;;;;;;;24.34;54.68;100270.69;5033227;28;20447;-83
2022/05/16 08:34:06;;;;;;;12.18;2.97;;;;;;;25.18;53.05;100274.16;5033156;28;20490;-83
2022/05/16 08:42:04;;;;;;;9.02;2.80;;;;;;;22.99;58.59;100278.78;5033042;28;20324;-82
2022/05/16 08:44:38;;;;;;;10.13;2.80;;;;;;;22.82;58.44;100273.63;5031928;28;20037;-82
2022/05/16 08:47:22;;;;;;;13.48;3.58;;;;;;;24.62;56.26;100277.06;5029364;28;20037;-82
2022/05/16 08:49:56;;;;;;;12.45;3.67;;;;;;;24.69;54.37;100277.94;5032169;28;20036;-82
2022/05/16 08:52:27;;;;;;;10.98;2.53;;;;;;;23.88;55.85;100281.13;5031913;28;20032;-82
2022/05/16 08:55:03;;;;;;;10.63;2.28;;;;;;;23.61;56.93;100298.78;5032629;28;20025;-82
2022/05/16 08:57:42;;;;;;;9.73;2.35;;;;;;;23.10;57.43;100294.34;5032145;28;20025;-82
2022/05/16 09:00:11;;;;;;;14.20;3.50;;;;;;;23.19;58.70;100300.44;5030975;28;20025;-82
2022/05/16 09:02:41;;;;;;;8.98;3.15;;;;;;;23.27;57.35;100306.50;5032179;28;20025;-82
2022/05/16 09:05:15;;;;;;;9.27;2.30;;;;;;;23.19;57.61;100301.28;5031028;28;20472;-82
2022/05/16 09:07:47;;;;;;;13.40;4.03;;;;;;;24.08;56.31;100308.91;5031574;28;20071;-82
2022/05/16 09:10:26;;;;;;;9.77;2.08;;;;;;;25.72;51.52;100300.09;5029526;28;20412;-82
2022/05/16 09:13:29;;;;;;;9.15;2.67;;;;;;;25.46;51.55;100321.59;5028451;28;20021;-82
2022/05/16 09:16:23;;;;;;;13.88;2.55;;;;;;;25.36;52.14;100319.28;5024332;28;20495;-82
2022/05/16 09:19:03;;;;;;;12.40;2.78;;;;;;;25.38;52.30;100319.09;5031793;28;20038;-82
2022/05/16 09:21:46;;;;;;;12.48;2.67;;;;;;;24.48;53.73;100316.38;5031485;28;20112;-83
2022/05/16 09:24:16;;;;;;;7.07;2.17;;;;;;;26.39;50.45;100315.41;5032334;28;20061;-83
2022/05/16 09:26:56;;;;;;;12.75;2.78;;;;;;;27.40;48.81;100328.28;5031840;28;20026;-83
2022/05/16 09:29:31;;;;;;;8.20;2.23;;;;;;;27.10;47.94;100342.31;5030771;28;20026;-83
2022/05/16 09:32:05;;;;;;;10.77;2.33;;;;;;;27.80;46.44;100335.28;5029831;28;20022;-82
2022/05/16 09:34:32;;;;;;;8.85;2.05;;;;;;;29.20;45.63;100347.38;5031122;28;20030;-82
2022/05/16 09:36:58;;;;;;;7.97;1.80;;;;;;;29.77;42.42;100352.41;5031731;28;20047;-82
2022/05/16 09:39:25;;;;;;;8.93;2.22;;;;;;;30.43;42.21;100345.06;5030874;28;20056;-82
2022/05/16 09:42:01;;;;;;;11.50;2.40;;;;;;;30.73;40.23;100354.91;5031630;28;20472;-82
2022/05/16 09:44:29;;;;;;;9.23;1.85;;;;;;;29.77;40.55;100355.13;5030709;28;20037;-82
2022/05/16 09:47:16;;;;;;;10.23;2.42;;;;;;;29.37;42.97;100343.00;5031234;28;20052;-83
2022/05/16 09:49:42;;;;;;;13.10;2.72;;;;;;;30.28;41.72;100348.22;5032129;28;20082;-82
2022/05/16 09:52:15;;;;;;;9.63;2.47;;;;;;;30.33;41.03;100342.94;5031378;28;20021;-83
2022/05/16 09:54:41;;;;;;;8.18;2.28;;;;;;;30.67;41.79;100335.03;5028345;28;20399;-83
2022/05/16 09:57:20;;;;;;;10.63;2.30;;;;;;;32.58;38.35;100343.53;5029673;28;20029;-83
2022/05/16 09:59:55;;;;;;;15.52;2.85;;;;;;;30.55;40.99;100345.03;5030191;28;20377;-83
2022/05/16 10:02:30;;;;;;;11.23;2.20;;;;;;;31.98;36.91;100334.19;5029533;28;20025;-83
2022/05/16 10:05:01;;;;;;;11.13;2.50;;;;;;;32.31;37.45;100343.41;5029513;28;20025;-83
2022/05/16 10:07:49;;;;;;;12.73;2.90;;;;;;;31.19;38.84;100345.03;5030419;28;20140;-83
2022/05/16 10:10:22;;;;;;;14.10;2.10;;;;;;;29.67;40.38;100351.06;5031764;28;20071;-83
2022/05/16 10:12:50;;;;;;;9.38;2.03;;;;;;;31.18;38.63;100346.91;5031147;28;20483;-82
2022/05/16 10:15:17;;;;;;;13.68;3.10;;;;;;;30.92;38.81;100342.03;5031759;28;20025;-83
2022/05/16 10:17:45;;;;;;;9.13;2.63;;;;;;;31.47;38.71;100355.06;5030992;28;20067;-83
2022/05/16 10:20:16;;;;;;;8.93;2.38;;;;;;;30.76;38.82;100357.97;5031758;28;20036;-83
2022/05/16 10:22:42;;;;;;;11.20;2.42;;;;;;;30.53;38.99;100360.72;5031281;28;20030;-83
2022/05/16 10:25:13;;;;;;;11.93;2.83;;;;;;;30.25;40.62;100362.22;5033482;28;20079;-83
2022/05/16 10:27:42;;;;;;;15.20;2.85;;;;;;;28.85;41.23;100370.47;5035071;28;20111;-83
2022/05/16 10:30:15;;;;;;;10.77;2.60;;;;;;;28.03;43.53;100359.00;5034561;28;20033;-83
2022/05/16 10:35:38;;;;;;;12.82;2.58;;;;;;;29.02;43.49;100365.25;5033804;28;20064;-83
2022/05/16 10:38:18;;;;;;;11.75;3.20;;;;;;;28.37;44.02;100356.81;5035071;28;20021;-83
2022/05/16 10:40:50;;;;;;;13.77;2.25;;;;;;;28.20;43.53;100376.28;5034741;28;20025;-83
2022/05/16 10:43:30;;;;;;;13.13;2.25;;;;;;;27.77;44.84;100368.91;5035287;28;20025;-83
2022/05/16 10:46:02;;;;;;;7.97;2.15;;;;;;;27.23;45.25;100375.63;5035329;28;20017;-83
2022/05/16 10:48:48;;;;;;;14.30;3.13;;;;;;;25.94;48.10;100377.94;5035253;28;20029;-83
2022/05/16 10:51:13;;;;;;;10.40;2.38;;;;;;;24.74;50.70;100386.38;5035141;28;20021;-83
2022/05/16 10:53:52;;;;;;;9.00;2.00;;;;;;;24.62;52.91;100401.34;5034865;28;20099;-83
2022/05/16 10:56:47;;;;;;;10.93;2.47;;;;;;;23.75;55.54;100405.13;5034953;28;20013;-82
2022/05/16 10:59:31;;;;;;;14.75;3.65;;;;;;;24.40;54.95;100403.25;5034918;28;20033;-83
2022/05/16 11:02:17;;;;;;;16.30;3.00;;;;;;;24.49;53.43;100412.00;5035016;28;20025;-83
2022/05/16 11:05:22;;;;;;;9.80;2.65;;;;;;;24.65;53.77;100408.22;5033727;28;20170;-83
2022/05/16 11:07:52;;;;;;;10.82;2.50;;;;;;;24.92;53.57;100404.66;5035077;28;20047;-82
2022/05/16 11:10:42;;;;;;;8.73;2.42;;;;;;;25.36;51.76;100420.59;5035006;28;20024;-84
2022/05/16 11:13:27;;;;;;;11.30;2.25;;;;;;;24.41;52.76;100418.34;5033411;28;20030;-85
2022/05/16 11:16:03;;;;;;;17.38;2.83;;;;;;;24.05;53.77;100415.75;5033655;28;20040;-85
2022/05/16 11:19:15;;;;;;;10.18;2.55;;;;;;;24.11;54.53;100410.47;5033975;28;20076;-83
2022/05/16 11:21:49;;;;;;;11.05;2.83;;;;;;;25.03;53.41;100423.91;5033183;28;20107;-83
2022/05/16 11:24:30;;;;;;;17.60;3.05;;;;;;;24.10;52.70;100424.88;5034488;28;20539;-83
2022/05/16 11:27:11;;;;;;;18.65;4.10;;;;;;;23.15;56.24;100418.66;5034577;28;20014;-83
2022/05/16 11:30:06;;;;;;;8.88;2.33;;;;;;;24.04;54.64;100431.00;5034652;28;20069;-83
2022/05/16 11:32:49;;;;;;;16.30;3.20;;;;;;;22.73;57.02;100430.81;5037500;28;20036;-83
2022/05/16 11:35:22;;;;;;;12.50;3.35;;;;;;;22.75;57.47;100430.63;5053657;28;20017;-83
2022/05/16 11:37:59;;;;;;;14.02;3.30;;;;;;;23.00;57.34;100428.50;5040015;28;20025;-83
2022/05/16 11:40:46;;;;;;;12.63;2.63;;;;;;;23.89;54.85;100424.88;5026556;28;20488;-84
2022/05/16 11:43:36;;;;;;;9.15;2.13;;;;;;;24.38;54.04;100418.72;5042734;28;20045;-83
2022/05/16 11:46:26;;;;;;;14.38;3.30;;;;;;;24.38;53.78;100431.31;5034009;28;20100;-83
2022/05/16 11:48:57;;;;;;;17.55;2.25;;;;;;;23.51;55.93;100425.06;5031913;28;20036;-83
2022/05/16 11:51:55;;;;;;;8.27;2.42;;;;;;;23.44;55.90;100425.00;5024065;28;20021;-83
2022/05/16 11:54:27;;;;;;;10.38;2.60;;;;;;;23.56;54.56;100430.69;5026688;28;20045;-83
2022/05/16 12:02:29;;;;;;;12.55;1.83;;;;;;;22.61;56.32;100437.63;5018318;28;20152;-83
2022/05/16 12:05:04;;;;;;;10.38;2.08;;;;;;;22.16;57.02;100437.47;5022124;28;20021;-83
2022/05/16 12:07:35;;;;;;;11.05;2.80;;;;;;;22.45;56.69;100451.16;5033233;28;20187;-83